Time;durP1;ratioP1;P1;durP2;ratioP2;P2;SDS_P1;SDS_P2;PMS_P1;PMS_P2;Temp;Humidity;BMP_temperature;BMP_pressure;BME280_temperature;BME280_humidity;BME280_pressure;Samples;Min_cycle;Max_cycle;Signal;HPM_P1;HPM_P2
2022/04/29 00:00:18;;;;;;;;;;;;;;;;;;1897120;28;7038;-70
2022/04/29 00:01:15;;;;;;;;;;;;;;;;;;1896413;28;7117;-70
2022/04/29 00:02:13;;;;;;;;;;;;;;;;;;1903907;28;7109;-69
2022/04/29 00:03:12;;;;;;;;;;;;;;;;;;1904268;28;7017;-70
2022/04/29 00:04:09;;;;;;;;;;;;;;;;;;1904510;28;7058;-70
2022/04/29 00:05:08;;;;;;;;;;;;;;;;;;1903981;28;7097;-69
2022/04/29 00:06:06;;;;;;;;;;;;;;;;;;1903855;28;7148;-69
2022/04/29 00:07:05;;;;;;;;;;;;;;;;;;1904412;28;7009;-69
2022/04/29 00:08:03;;;;;;;;;;;;;;;;;;1904134;28;7017;-69
2022/04/29 00:09:00;;;;;;;;;;;;;;;;;;1904404;28;7009;-71
2022/04/29 00:09:58;;;;;;;;;;;;;;;;;;1903493;28;7054;-71
2022/04/29 00:10:56;;;;;;;;;;;;;;;;;;1904289;28;7096;-68
2022/04/29 00:11:54;;;;;;;;;;;;;;;;;;1904421;28;7311;-70
2022/04/29 00:12:53;;;;;;;;;;;;;;;;;;1903828;28;7014;-68
2022/04/29 00:13:51;;;;;;;;;;;;;;;;;;1904220;28;7124;-69
2022/04/29 00:14:48;;;;;;;;;;;;;;;;;;1904333;28;7108;-69
2022/04/29 00:15:46;;;;;;;;;;;;;;;;;;1904652;28;7357;-67
2022/04/29 00:16:43;;;;;;;;;;;;;;;;;;1904657;28;7010;-70
2022/04/29 00:17:41;;;;;;;;;;;;;;;;;;1904105;28;7010;-70
2022/04/29 00:18:39;;;;;;;;;;;;;;;;;;1904384;28;7009;-69
2022/04/29 00:19:36;;;;;;;;;;;;;;;;;;1904559;28;8032;-68
2022/04/29 00:20:34;;;;;;;;;;;;;;;;;;1904936;28;7013;-70
2022/04/29 00:21:32;;;;;;;;;;;;;;;;;;1902932;28;7128;-70
2022/04/29 00:22:30;;;;;;;;;;;;;;;;;;1904608;28;7006;-67
2022/04/29 00:23:27;;;;;;;;;;;;;;;;;;1904817;28;7014;-71
2022/04/29 00:24:25;;;;;;;;;;;;;;;;;;1904469;28;7113;-69
2022/04/29 00:25:22;;;;;;;;;;;;;;;;;;1904503;28;7010;-68
2022/04/29 00:26:20;;;;;;;;;;;;;;;;;;1904144;28;7093;-69
2022/04/29 00:27:17;;;;;;;;;;;;;;;;;;1904585;28;7113;-68
2022/04/29 00:28:15;;;;;;;;;;;;;;;;;;1904383;28;7096;-69
2022/04/29 00:29:12;;;;;;;;;;;;;;;;;;1904534;28;7461;-69
2022/04/29 00:30:11;;;;;;;;;;;;;;;;;;1904891;28;7014;-71
2022/04/29 00:31:08;;;;;;;;;;;;;;;;;;1904496;28;7041;-70
2022/04/29 00:32:06;;;;;;;;;;;;;;;;;;1896238;28;7006;-70
2022/04/29 00:33:04;;;;;;;;;;;;;;;;;;1896526;28;7013;-71
2022/04/29 00:34:02;;;;;;;;;;;;;;;;;;1902306;28;7042;-70
2022/04/29 00:34:59;;;;;;;;;;;;;;;;;;1904077;28;7038;-68
2022/04/29 00:35:57;;;;;;;;;;;;;;;;;;1904268;28;7010;-68
2022/04/29 00:36:54;;;;;;;;;;;;;;;;;;1904660;28;7224;-67
2022/04/29 00:37:53;;;;;;;;;;;;;;;;;;1904480;28;7006;-68
2022/04/29 00:38:50;;;;;;;;;;;;;;;;;;1903871;28;7041;-71
2022/04/29 00:39:48;;;;;;;;;;;;;;;;;;1904534;28;7042;-71
2022/04/29 00:40:45;;;;;;;;;;;;;;;;;;1904194;28;7009;-69
2022/04/29 00:41:44;;;;;;;;;;;;;;;;;;1910200;28;7196;-70
2022/04/29 00:42:43;;;;;;;;;;;;;;;;;;1905056;28;7141;-70
2022/04/29 00:43:41;;;;;;;;;;;;;;;;;;1904140;28;7006;-72
2022/04/29 00:44:40;;;;;;;;;;;;;;;;;;1904637;28;7002;-68
2022/04/29 00:45:37;;;;;;;;;;;;;;;;;;1904129;28;7006;-67
2022/04/29 00:46:38;;;;;;;;;;;;;;;;;;1904808;28;7006;-69
2022/04/29 00:47:36;;;;;;;;;;;;;;;;;;1903975;28;8334;-70
2022/04/29 00:48:33;;;;;;;;;;;;;;;;;;1903683;28;7322;-68
2022/04/29 00:49:31;;;;;;;;;;;;;;;;;;1904471;28;7001;-71
2022/04/29 00:50:29;;;;;;;;;;;;;;;;;;1904165;28;7137;-67
2022/04/29 00:51:27;;;;;;;;;;;;;;;;;;1904695;28;7371;-67
2022/04/29 00:52:25;;;;;;;;;;;;;;;;;;1904935;28;7117;-67
2022/04/29 00:53:26;;;;;;;;;;;;;;;;;;1903981;28;7013;-72
2022/04/29 00:54:26;;;;;;;;;;;;;;;;;;1904551;28;7113;-70
2022/04/29 00:55:24;;;;;;;;;;;;;;;;;;1904412;28;7152;-68
2022/04/29 00:56:22;;;;;;;;;;;;;;;;;;1902851;28;7967;-69
2022/04/29 00:57:24;;;;;;;;;;;;;;;;;;1899074;28;8137;-68
2022/04/29 00:58:31;;;;;;;;;;;;;;;;;;1889164;28;7017;-68
2022/04/29 00:59:49;;;;;;;;;;;;;;;;;;1888864;28;7157;-68
2022/04/29 01:00:47;;;;;;;;;;;;;;;;;;1902082;28;7046;-68
2022/04/29 01:01:45;;;;;;;;;;;;;;;;;;1897054;28;7010;-70
2022/04/29 01:02:46;;;;;;;;;;;;;;;;;;1897010;28;7006;-67
2022/04/29 01:03:46;;;;;;;;;;;;;;;;;;1895631;28;7457;-69
2022/04/29 01:04:59;;;;;;;;;;;;;;;;;;1900033;28;7014;-68
2022/04/29 01:05:58;;;;;;;;;;;;;;;;;;1899263;28;8266;-68
2022/04/29 01:06:56;;;;;;;;;;;;;;;;;;1897093;28;7006;-68
2022/04/29 01:07:53;;;;;;;;;;;;;;;;;;1898260;28;7026;-69
2022/04/29 01:08:51;;;;;;;;;;;;;;;;;;1904408;28;8047;-67
2022/04/29 01:09:49;;;;;;;;;;;;;;;;;;1904063;28;7038;-70
2022/04/29 01:10:47;;;;;;;;;;;;;;;;;;1904013;28;9013;-69
2022/04/29 01:11:45;;;;;;;;;;;;;;;;;;1904146;28;7125;-69
2022/04/29 01:12:44;;;;;;;;;;;;;;;;;;1896201;28;7005;-69
2022/04/29 01:13:42;;;;;;;;;;;;;;;;;;1895970;28;7106;-67
2022/04/29 01:14:39;;;;;;;;;;;;;;;;;;1896071;28;7148;-70
2022/04/29 01:15:36;;;;;;;;;;;;;;;;;;1896286;28;7870;-68
2022/04/29 01:16:34;;;;;;;;;;;;;;;;;;1899946;28;7006;-68
2022/04/29 01:17:36;;;;;;;;;;;;;;;;;;1904129;28;7006;-68
2022/04/29 01:18:36;;;;;;;;;;;;;;;;;;1895572;28;10204;-69
2022/04/29 01:19:33;;;;;;;;;;;;;;;;;;1896729;28;7050;-68
2022/04/29 01:20:32;;;;;;;;;;;;;;;;;;1904200;28;7025;-68
2022/04/29 01:21:29;;;;;;;;;;;;;;;;;;1896174;28;7038;-68
2022/04/29 01:22:26;;;;;;;;;;;;;;;;;;1897416;28;7294;-69
2022/04/29 01:23:24;;;;;;;;;;;;;;;;;;1899983;28;7009;-68
2022/04/29 01:24:22;;;;;;;;;;;;;;;;;;1895529;28;8217;-68
2022/04/29 01:25:19;;;;;;;;;;;;;;;;;;1896725;28;8030;-67
2022/04/29 01:26:17;;;;;;;;;;;;;;;;;;1900592;28;7455;-68
2022/04/29 01:27:14;;;;;;;;;;;;;;;;;;1904518;28;7013;-70
2022/04/29 01:28:11;;;;;;;;;;;;;;;;;;1904996;28;7013;-72
2022/04/29 01:29:10;;;;;;;;;;;;;;;;;;1897782;28;7096;-69
2022/04/29 01:30:09;;;;;;;;;;;;;;;;;;1898503;28;7050;-68
2022/04/29 01:31:10;;;;;;;;;;;;;;;;;;1901021;28;7089;-69
2022/04/29 01:32:09;;;;;;;;;;;;;;;;;;1905288;28;7295;-68
2022/04/29 01:33:07;;;;;;;;;;;;;;;;;;1904861;28;7044;-68
2022/04/29 01:34:04;;;;;;;;;;;;;;;;;;1905287;28;8013;-66
2022/04/29 01:35:03;;;;;;;;;;;;;;;;;;1905650;28;7010;-71
2022/04/29 01:36:01;;;;;;;;;;;;;;;;;;1906203;28;7109;-67
2022/04/29 01:36:58;;;;;;;;;;;;;;;;;;1905244;28;7001;-69
2022/04/29 01:37:55;;;;;;;;;;;;;;;;;;1897659;28;8036;-68
2022/04/29 01:38:53;;;;;;;;;;;;;;;;;;1897568;28;7017;-67
2022/04/29 01:39:50;;;;;;;;;;;;;;;;;;1904281;28;7093;-68
2022/04/29 01:40:48;;;;;;;;;;;;;;;;;;1905471;28;7009;-69
2022/04/29 01:41:45;;;;;;;;;;;;;;;;;;1906107;28;7096;-68
2022/04/29 01:42:43;;;;;;;;;;;;;;;;;;1897406;28;7018;-68
2022/04/29 01:43:41;;;;;;;;;;;;;;;;;;1898038;28;7005;-69
2022/04/29 01:44:38;;;;;;;;;;;;;;;;;;1898431;28;7014;-69
2022/04/29 01:45:36;;;;;;;;;;;;;;;;;;1898154;28;7206;-68
2022/04/29 01:46:33;;;;;;;;;;;;;;;;;;1904047;28;7776;-68
2022/04/29 01:47:30;;;;;;;;;;;;;;;;;;1903194;28;7062;-71
2022/04/29 01:48:28;;;;;;;;;;;;;;;;;;1898115;28;8116;-68
2022/04/29 01:49:26;;;;;;;;;;;;;;;;;;1898723;28;7046;-70
2022/04/29 01:50:23;;;;;;;;;;;;;;;;;;1898210;28;7109;-69
2022/04/29 01:51:20;;;;;;;;;;;;;;;;;;1898486;28;7046;-68
2022/04/29 01:52:18;;;;;;;;;;;;;;;;;;1905460;28;7006;-70
2022/04/29 01:53:15;;;;;;;;;;;;;;;;;;1904526;28;7005;-68
2022/04/29 01:54:13;;;;;;;;;;;;;;;;;;1903629;28;7029;-70
2022/04/29 01:55:10;;;;;;;;;;;;;;;;;;1898983;28;7139;-67
2022/04/29 01:56:08;;;;;;;;;;;;;;;;;;1905772;28;7109;-66
2022/04/29 01:57:06;;;;;;;;;;;;;;;;;;1905452;28;7468;-67
2022/04/29 01:58:03;;;;;;;;;;;;;;;;;;1905021;28;7005;-68
2022/04/29 01:59:02;;;;;;;;;;;;;;;;;;1905311;28;8392;-69
2022/04/29 02:00:00;;;;;;;;;;;;;;;;;;1905196;28;7142;-69
2022/04/29 02:00:57;;;;;;;;;;;;;;;;;;1905336;28;8025;-69
2022/04/29 02:01:55;;;;;;;;;;;;;;;;;;1905314;28;7009;-70
2022/04/29 02:02:55;;;;;;;;;;;;;;;;;;1905508;28;7113;-68
2022/04/29 02:03:54;;;;;;;;;;;;;;;;;;1905489;28;7084;-69
2022/04/29 02:04:52;;;;;;;;;;;;;;;;;;1905444;28;7113;-69
2022/04/29 02:05:50;;;;;;;;;;;;;;;;;;1905377;28;7037;-70
2022/04/29 02:06:47;;;;;;;;;;;;;;;;;;1905527;28;7026;-68
2022/04/29 02:07:45;;;;;;;;;;;;;;;;;;1904731;28;7133;-69
2022/04/29 02:08:42;;;;;;;;;;;;;;;;;;1905383;28;8045;-72
2022/04/29 02:09:40;;;;;;;;;;;;;;;;;;1905549;28;7128;-67
2022/04/29 02:10:38;;;;;;;;;;;;;;;;;;1905896;28;7033;-69
2022/04/29 02:11:35;;;;;;;;;;;;;;;;;;1904966;28;8028;-68
2022/04/29 02:12:34;;;;;;;;;;;;;;;;;;1905153;28;7046;-69
2022/04/29 02:13:32;;;;;;;;;;;;;;;;;;1905027;28;7253;-69
2022/04/29 02:14:29;;;;;;;;;;;;;;;;;;1905131;28;8032;-67
2022/04/29 02:15:27;;;;;;;;;;;;;;;;;;1905060;28;7050;-70
2022/04/29 02:16:24;;;;;;;;;;;;;;;;;;1905092;28;7010;-69
2022/04/29 02:17:22;;;;;;;;;;;;;;;;;;1905882;28;7085;-69
2022/04/29 02:18:19;;;;;;;;;;;;;;;;;;1905219;28;7047;-68
2022/04/29 02:19:17;;;;;;;;;;;;;;;;;;1897454;28;7001;-68
2022/04/29 02:20:14;;;;;;;;;;;;;;;;;;1897440;28;7041;-69
2022/04/29 02:21:11;;;;;;;;;;;;;;;;;;1895308;28;7025;-68
2022/04/29 02:22:09;;;;;;;;;;;;;;;;;;1897440;28;7049;-69
2022/04/29 02:23:07;;;;;;;;;;;;;;;;;;1904157;28;7089;-69
2022/04/29 02:24:04;;;;;;;;;;;;;;;;;;1905735;28;7089;-68
2022/04/29 02:25:02;;;;;;;;;;;;;;;;;;1905071;28;7010;-71
2022/04/29 02:26:00;;;;;;;;;;;;;;;;;;1905271;28;7042;-69
2022/04/29 02:26:59;;;;;;;;;;;;;;;;;;1896623;28;7827;-69
2022/04/29 02:27:57;;;;;;;;;;;;;;;;;;1897612;28;8154;-67
2022/04/29 02:28:54;;;;;;;;;;;;;;;;;;1904860;28;7006;-71
2022/04/29 02:29:52;;;;;;;;;;;;;;;;;;1904979;28;7038;-68
2022/04/29 02:30:49;;;;;;;;;;;;;;;;;;1905950;28;7029;-69
2022/04/29 02:31:48;;;;;;;;;;;;;;;;;;1905258;28;7304;-69
2022/04/29 02:32:46;;;;;;;;;;;;;;;;;;1905061;28;7113;-67
2022/04/29 02:33:43;;;;;;;;;;;;;;;;;;1905204;28;7005;-67
2022/04/29 02:34:42;;;;;;;;;;;;;;;;;;1904941;28;7025;-70
2022/04/29 02:35:39;;;;;;;;;;;;;;;;;;1905250;28;7130;-69
2022/04/29 02:36:36;;;;;;;;;;;;;;;;;;1904759;28;7116;-70
2022/04/29 02:37:34;;;;;;;;;;;;;;;;;;1904503;28;7006;-68
2022/04/29 02:38:31;;;;;;;;;;;;;;;;;;1905320;28;7033;-69
2022/04/29 02:39:29;;;;;;;;;;;;;;;;;;1904421;28;8013;-69
2022/04/29 02:40:26;;;;;;;;;;;;;;;;;;1905019;28;7088;-70
2022/04/29 02:41:24;;;;;;;;;;;;;;;;;;1904969;28;7130;-71
2022/04/29 02:42:21;;;;;;;;;;;;;;;;;;1904982;28;7097;-69
2022/04/29 02:43:19;;;;;;;;;;;;;;;;;;1905084;28;7014;-67
2022/04/29 02:44:16;;;;;;;;;;;;;;;;;;1905206;28;7308;-69
2022/04/29 02:45:14;;;;;;;;;;;;;;;;;;1905891;28;7014;-68
2022/04/29 02:46:11;;;;;;;;;;;;;;;;;;1905145;28;7014;-67
2022/04/29 02:47:09;;;;;;;;;;;;;;;;;;1904810;28;7013;-68
2022/04/29 02:48:07;;;;;;;;;;;;;;;;;;1904910;28;7117;-68
2022/04/29 02:49:04;;;;;;;;;;;;;;;;;;1904027;28;7487;-71
2022/04/29 02:50:02;;;;;;;;;;;;;;;;;;1905160;28;7054;-71
2022/04/29 02:51:00;;;;;;;;;;;;;;;;;;1904792;28;7013;-68
2022/04/29 02:51:57;;;;;;;;;;;;;;;;;;1905019;28;8107;-70
2022/04/29 02:52:55;;;;;;;;;;;;;;;;;;1904146;28;7253;-70
2022/04/29 02:53:52;;;;;;;;;;;;;;;;;;1905004;28;7316;-68
2022/04/29 02:54:50;;;;;;;;;;;;;;;;;;1904632;28;7076;-68
2022/04/29 02:55:47;;;;;;;;;;;;;;;;;;1904856;28;7088;-70
2022/04/29 02:56:45;;;;;;;;;;;;;;;;;;1904773;28;7021;-69
2022/04/29 02:57:42;;;;;;;;;;;;;;;;;;1905177;28;7093;-68
2022/04/29 02:58:40;;;;;;;;;;;;;;;;;;1905383;28;7006;-69
2022/04/29 02:59:37;;;;;;;;;;;;;;;;;;1897111;28;7096;-69
2022/04/29 03:00:35;;;;;;;;;;;;;;;;;;1896441;28;7005;-71
2022/04/29 03:01:33;;;;;;;;;;;;;;;;;;1903930;28;7403;-68
2022/04/29 03:02:31;;;;;;;;;;;;;;;;;;1904256;28;7050;-67
2022/04/29 03:03:29;;;;;;;;;;;;;;;;;;1904562;28;7026;-69
2022/04/29 03:04:27;;;;;;;;;;;;;;;;;;1903704;28;7089;-69
2022/04/29 03:05:26;;;;;;;;;;;;;;;;;;1898299;28;7129;-70
2022/04/29 03:06:23;;;;;;;;;;;;;;;;;;1896528;28;7188;-69
2022/04/29 03:07:20;;;;;;;;;;;;;;;;;;1904639;28;8685;-70
2022/04/29 03:08:18;;;;;;;;;;;;;;;;;;1901860;28;7014;-68
2022/04/29 03:09:16;;;;;;;;;;;;;;;;;;1898344;28;8103;-68
2022/04/29 03:10:14;;;;;;;;;;;;;;;;;;1896896;28;7006;-69
2022/04/29 03:11:12;;;;;;;;;;;;;;;;;;1898179;28;7038;-66
2022/04/29 03:12:12;;;;;;;;;;;;;;;;;;1897137;28;7046;-70
2022/04/29 03:13:09;;;;;;;;;;;;;;;;;;1905477;28;7013;-67
2022/04/29 03:14:07;;;;;;;;;;;;;;;;;;1904995;28;7082;-69
2022/04/29 03:15:17;;;;;;;;;;;;;;;;;;1895667;28;7085;-71
2022/04/29 03:16:14;;;;;;;;;;;;;;;;;;1897325;28;7096;-68
2022/04/29 03:18:28;;;;;;;;;;;;;;;;;;1890937;28;7017;-70
2022/04/29 03:19:25;;;;;;;;;;;;;;;;;;1904298;28;7156;-69
2022/04/29 03:20:22;;;;;;;;;;;;;;;;;;1904854;28;7042;-68
2022/04/29 03:21:20;;;;;;;;;;;;;;;;;;1902929;28;7037;-68
2022/04/29 03:22:18;;;;;;;;;;;;;;;;;;1897576;28;7092;-69
2022/04/29 03:23:15;;;;;;;;;;;;;;;;;;1897948;28;8035;-68
2022/04/29 03:24:13;;;;;;;;;;;;;;;;;;1898227;28;7009;-68
2022/04/29 03:25:10;;;;;;;;;;;;;;;;;;1896163;28;7101;-71
2022/04/29 03:26:07;;;;;;;;;;;;;;;;;;1889543;28;7001;-69
2022/04/29 03:27:05;;;;;;;;;;;;;;;;;;1889630;28;7165;-70
2022/04/29 03:28:05;;;;;;;;;;;;;;;;;;1896050;28;7105;-67
2022/04/29 03:29:03;;;;;;;;;;;;;;;;;;1898792;28;7001;-69
2022/04/29 03:30:01;;;;;;;;;;;;;;;;;;1904888;28;7113;-70
2022/04/29 03:31:02;;;;;;;;;;;;;;;;;;1904870;28;7084;-69
2022/04/29 03:32:00;;;;;;;;;;;;;;;;;;1904431;28;7001;-70
2022/04/29 03:32:58;;;;;;;;;;;;;;;;;;1904723;28;7045;-68
2022/04/29 03:33:56;;;;;;;;;;;;;;;;;;1904172;28;7120;-67
2022/04/29 03:34:53;;;;;;;;;;;;;;;;;;1904402;28;7312;-70
2022/04/29 03:35:51;;;;;;;;;;;;;;;;;;1900771;28;7006;-69
2022/04/29 03:36:53;;;;;;;;;;;;;;;;;;1897531;28;7009;-69
2022/04/29 03:37:52;;;;;;;;;;;;;;;;;;1901257;28;7006;-66
2022/04/29 03:38:49;;;;;;;;;;;;;;;;;;1897159;28;7009;-69
2022/04/29 03:39:46;;;;;;;;;;;;;;;;;;1896030;28;8079;-68
2022/04/29 03:40:44;;;;;;;;;;;;;;;;;;1897346;28;7101;-67
2022/04/29 03:41:41;;;;;;;;;;;;;;;;;;1896927;28;7038;-68
2022/04/29 03:42:39;;;;;;;;;;;;;;;;;;1897672;28;7006;-70
2022/04/29 03:43:37;;;;;;;;;;;;;;;;;;1898501;28;7038;-69
2022/04/29 03:44:34;;;;;;;;;;;;;;;;;;1896086;28;7108;-68
2022/04/29 03:45:32;;;;;;;;;;;;;;;;;;1901716;28;7084;-71
2022/04/29 03:46:30;;;;;;;;;;;;;;;;;;1904736;28;7005;-69
2022/04/29 03:47:27;;;;;;;;;;;;;;;;;;1897409;28;7026;-70
2022/04/29 03:48:25;;;;;;;;;;;;;;;;;;1897604;28;7009;-68
2022/04/29 03:49:38;;;;;;;;;;;;;;;;;;1897421;28;7005;-68
2022/04/29 03:50:36;;;;;;;;;;;;;;;;;;1898200;28;7092;-67
2022/04/29 03:51:33;;;;;;;;;;;;;;;;;;1904279;28;7368;-71
2022/04/29 03:52:31;;;;;;;;;;;;;;;;;;1904367;28;7062;-68
2022/04/29 03:53:28;;;;;;;;;;;;;;;;;;1904912;28;7084;-69
2022/04/29 03:54:25;;;;;;;;;;;;;;;;;;1897952;28;7246;-70
2022/04/29 03:55:25;;;;;;;;;;;;;;;;;;1897052;28;7010;-68
2022/04/29 03:56:23;;;;;;;;;;;;;;;;;;1895754;28;7045;-70
2022/04/29 03:57:26;;;;;;;;;;;;;;;;;;1893861;28;7088;-70
2022/04/29 03:58:23;;;;;;;;;;;;;;;;;;1896681;28;7372;-69
2022/04/29 03:59:20;;;;;;;;;;;;;;;;;;1896788;28;7113;-70
2022/04/29 04:00:18;;;;;;;;;;;;;;;;;;1895431;28;7031;-68
2022/04/29 04:01:15;;;;;;;;;;;;;;;;;;1897501;28;7135;-69
2022/04/29 04:02:13;;;;;;;;;;;;;;;;;;1897028;28;7131;-70
2022/04/29 04:03:11;;;;;;;;;;;;;;;;;;1898804;28;7175;-72
2022/04/29 04:04:08;;;;;;;;;;;;;;;;;;1895993;28;7029;-69
2022/04/29 04:05:07;;;;;;;;;;;;;;;;;;1900812;28;8104;-68
2022/04/29 04:07:21;;;;;;;;;;;;;;;;;;1895582;28;7117;-68
2022/04/29 04:08:19;;;;;;;;;;;;;;;;;;1897224;28;7265;-69
2022/04/29 04:09:18;;;;;;;;;;;;;;;;;;1896463;28;7343;-68
2022/04/29 04:10:15;;;;;;;;;;;;;;;;;;1896642;28;7100;-70
2022/04/29 04:11:13;;;;;;;;;;;;;;;;;;1899940;28;7328;-68
2022/04/29 04:12:10;;;;;;;;;;;;;;;;;;1904352;28;7021;-69
2022/04/29 04:13:10;;;;;;;;;;;;;;;;;;1904710;28;7021;-69
2022/04/29 04:14:09;;;;;;;;;;;;;;;;;;1900968;28;7092;-71
2022/04/29 04:15:07;;;;;;;;;;;;;;;;;;1897706;28;7211;-69
2022/04/29 04:16:04;;;;;;;;;;;;;;;;;;1897217;28;7009;-70
2022/04/29 04:17:02;;;;;;;;;;;;;;;;;;1896996;28;7308;-66
2022/04/29 04:18:00;;;;;;;;;;;;;;;;;;1897675;28;7018;-69
2022/04/29 04:18:57;;;;;;;;;;;;;;;;;;1896270;28;7006;-69
2022/04/29 04:19:55;;;;;;;;;;;;;;;;;;1896300;28;7038;-69
2022/04/29 04:20:52;;;;;;;;;;;;;;;;;;1895223;28;7034;-69
2022/04/29 04:21:50;;;;;;;;;;;;;;;;;;1896562;28;7038;-68
2022/04/29 04:22:47;;;;;;;;;;;;;;;;;;1898598;28;7388;-67
2022/04/29 04:23:44;;;;;;;;;;;;;;;;;;1897210;28;7476;-68
2022/04/29 04:24:42;;;;;;;;;;;;;;;;;;1905065;28;7168;-68
2022/04/29 04:25:39;;;;;;;;;;;;;;;;;;1896314;28;8039;-70
2022/04/29 04:26:37;;;;;;;;;;;;;;;;;;1897236;28;8043;-67
2022/04/29 04:27:34;;;;;;;;;;;;;;;;;;1904233;28;8050;-68
2022/04/29 04:28:32;;;;;;;;;;;;;;;;;;1904502;28;7013;-67
2022/04/29 04:29:30;;;;;;;;;;;;;;;;;;1904313;28;7328;-70
2022/04/29 04:30:27;;;;;;;;;;;;;;;;;;1904338;28;7392;-69
2022/04/29 04:31:25;;;;;;;;;;;;;;;;;;1896010;28;7054;-69
2022/04/29 04:32:22;;;;;;;;;;;;;;;;;;1897166;28;7101;-69
2022/04/29 04:33:19;;;;;;;;;;;;;;;;;;1896983;28;7014;-69
2022/04/29 04:35:32;;;;;;;;;;;;;;;;;;1897164;28;7117;-70
2022/04/29 04:36:30;;;;;;;;;;;;;;;;;;1896881;28;7010;-68
2022/04/29 04:37:29;;;;;;;;;;;;;;;;;;1897411;28;7211;-67
2022/04/29 04:38:26;;;;;;;;;;;;;;;;;;1895283;28;7097;-68
2022/04/29 04:39:24;;;;;;;;;;;;;;;;;;1901387;28;7005;-67
2022/04/29 04:40:22;;;;;;;;;;;;;;;;;;1904762;28;7006;-68
2022/04/29 04:41:19;;;;;;;;;;;;;;;;;;1905115;28;7060;-70
2022/04/29 04:42:17;;;;;;;;;;;;;;;;;;1904428;28;7986;-67
2022/04/29 04:43:15;;;;;;;;;;;;;;;;;;1895751;28;7394;-67
2022/04/29 04:44:12;;;;;;;;;;;;;;;;;;1896901;28;7013;-69
2022/04/29 04:45:10;;;;;;;;;;;;;;;;;;1899380;28;7013;-68
2022/04/29 04:46:08;;;;;;;;;;;;;;;;;;1898331;28;7747;-67
2022/04/29 04:47:06;;;;;;;;;;;;;;;;;;1896192;28;7021;-70
2022/04/29 04:48:03;;;;;;;;;;;;;;;;;;1897083;28;7124;-67
2022/04/29 04:49:01;;;;;;;;;;;;;;;;;;1896887;28;7005;-69
2022/04/29 04:49:58;;;;;;;;;;;;;;;;;;1896731;28;8054;-68
2022/04/29 04:50:59;;;;;;;;;;;;;;;;;;1903370;28;7679;-68
2022/04/29 04:51:56;;;;;;;;;;;;;;;;;;1903733;28;7009;-70
2022/04/29 04:52:58;;;;;;;;;;;;;;;;;;1901116;28;7045;-70
2022/04/29 04:53:56;;;;;;;;;;;;;;;;;;1895884;28;8052;-67
2022/04/29 04:54:53;;;;;;;;;;;;;;;;;;1897274;28;7088;-69
2022/04/29 04:55:52;;;;;;;;;;;;;;;;;;1896964;28;7089;-68
2022/04/29 04:56:50;;;;;;;;;;;;;;;;;;1902164;28;7006;-67
2022/04/29 04:57:48;;;;;;;;;;;;;;;;;;1903966;28;7005;-69
2022/04/29 04:58:45;;;;;;;;;;;;;;;;;;1903995;28;7038;-68
2022/04/29 04:59:43;;;;;;;;;;;;;;;;;;1904489;28;7046;-70
2022/04/29 05:00:41;;;;;;;;;;;;;;;;;;1904230;28;7001;-67
2022/04/29 05:01:39;;;;;;;;;;;;;;;;;;1903441;28;7042;-69
2022/04/29 05:02:40;;;;;;;;;;;;;;;;;;1904883;28;7093;-68
2022/04/29 05:03:38;;;;;;;;;;;;;;;;;;1905257;28;7031;-69
2022/04/29 05:04:35;;;;;;;;;;;;;;;;;;1895577;28;9840;-69
2022/04/29 05:05:33;;;;;;;;;;;;;;;;;;1886547;28;7168;-69
2022/04/29 05:06:30;;;;;;;;;;;;;;;;;;1890292;28;7018;-68
2022/04/29 05:07:27;;;;;;;;;;;;;;;;;;1896622;28;7025;-69
2022/04/29 05:08:25;;;;;;;;;;;;;;;;;;1905004;28;10103;-70
2022/04/29 05:09:22;;;;;;;;;;;;;;;;;;1906348;28;7312;-69
2022/04/29 05:10:20;;;;;;;;;;;;;;;;;;1897676;28;7046;-71
2022/04/29 05:11:18;;;;;;;;;;;;;;;;;;1897497;28;7010;-69
2022/04/29 05:12:42;;;;;;;;;;;;;;;;;;1897931;28;7156;-69
2022/04/29 05:13:39;;;;;;;;;;;;;;;;;;1899729;28;7097;-67
2022/04/29 05:14:36;;;;;;;;;;;;;;;;;;1905468;28;7025;-69
2022/04/29 05:15:34;;;;;;;;;;;;;;;;;;1905986;28;7013;-69
2022/04/29 05:16:31;;;;;;;;;;;;;;;;;;1906115;28;7045;-68
2022/04/29 05:17:29;;;;;;;;;;;;;;;;;;1897635;28;7329;-68
2022/04/29 05:18:26;;;;;;;;;;;;;;;;;;1897427;28;7006;-69
2022/04/29 05:19:24;;;;;;;;;;;;;;;;;;1905087;28;8040;-69
2022/04/29 05:20:21;;;;;;;;;;;;;;;;;;1905797;28;7108;-70
2022/04/29 05:21:19;;;;;;;;;;;;;;;;;;1905902;28;8029;-68
2022/04/29 05:22:16;;;;;;;;;;;;;;;;;;1905604;28;8147;-68
2022/04/29 05:23:13;;;;;;;;;;;;;;;;;;1905963;28;7197;-69
2022/04/29 05:24:11;;;;;;;;;;;;;;;;;;1905842;28;7013;-68
2022/04/29 05:25:08;;;;;;;;;;;;;;;;;;1905706;28;7092;-69
2022/04/29 05:26:06;;;;;;;;;;;;;;;;;;1906461;28;8036;-69
2022/04/29 05:27:03;;;;;;;;;;;;;;;;;;1905365;28;7009;-69
2022/04/29 05:28:01;;;;;;;;;;;;;;;;;;1905624;28;8007;-67
2022/04/29 05:28:59;;;;;;;;;;;;;;;;;;1905080;28;7050;-67
2022/04/29 05:29:57;;;;;;;;;;;;;;;;;;1904740;28;7009;-68
2022/04/29 05:30:56;;;;;;;;;;;;;;;;;;1905862;28;7013;-68
2022/04/29 05:31:53;;;;;;;;;;;;;;;;;;1905499;28;7142;-68
2022/04/29 05:32:51;;;;;;;;;;;;;;;;;;1898377;28;7268;-69
2022/04/29 05:33:48;;;;;;;;;;;;;;;;;;1897915;28;7005;-67
2022/04/29 05:34:46;;;;;;;;;;;;;;;;;;1904493;28;7096;-67
2022/04/29 05:35:44;;;;;;;;;;;;;;;;;;1905853;28;8027;-66
2022/04/29 05:36:41;;;;;;;;;;;;;;;;;;1905739;28;7038;-70
2022/04/29 05:37:40;;;;;;;;;;;;;;;;;;1905711;28;7134;-67
2022/04/29 05:42:25;;;;;;;;;;;;;;;;;;1905532;28;7005;-67
2022/04/29 05:43:23;;;;;;;;;;;;;;;;;;1904910;28;7050;-68
2022/04/29 05:44:20;;;;;;;;;;;;;;;;;;1905698;28;7038;-68
2022/04/29 05:45:18;;;;;;;;;;;;;;;;;;1905321;28;8457;-69
2022/04/29 05:46:15;;;;;;;;;;;;;;;;;;1905694;28;7018;-68
2022/04/29 05:47:13;;;;;;;;;;;;;;;;;;1906036;28;7005;-67
2022/04/29 05:48:10;;;;;;;;;;;;;;;;;;1897878;28;7124;-67
2022/04/29 05:49:07;;;;;;;;;;;;;;;;;;1896460;28;7043;-70
2022/04/29 05:50:05;;;;;;;;;;;;;;;;;;1904343;28;7385;-68
2022/04/29 05:51:03;;;;;;;;;;;;;;;;;;1905627;28;7009;-70
2022/04/29 05:52:01;;;;;;;;;;;;;;;;;;1905616;28;7097;-69
2022/04/29 05:53:00;;;;;;;;;;;;;;;;;;1905862;28;7029;-69
2022/04/29 05:54:00;;;;;;;;;;;;;;;;;;1906256;28;7089;-70
2022/04/29 05:54:58;;;;;;;;;;;;;;;;;;1905546;28;7006;-68
2022/04/29 05:55:55;;;;;;;;;;;;;;;;;;1905602;28;8014;-69
2022/04/29 05:56:53;;;;;;;;;;;;;;;;;;1904008;28;7113;-68
2022/04/29 05:57:50;;;;;;;;;;;;;;;;;;1905293;28;7112;-69
2022/04/29 05:58:48;;;;;;;;;;;;;;;;;;1905646;28;7217;-69
2022/04/29 05:59:46;;;;;;;;;;;;;;;;;;1905403;28;7261;-67
2022/04/29 06:00:43;;;;;;;;;;;;;;;;;;1905430;28;7013;-69
2022/04/29 06:01:41;;;;;;;;;;;;;;;;;;1904263;28;7006;-68
2022/04/29 06:02:39;;;;;;;;;;;;;;;;;;1905388;28;7045;-69
2022/04/29 06:03:37;;;;;;;;;;;;;;;;;;1905409;28;7100;-70
2022/04/29 06:04:35;;;;;;;;;;;;;;;;;;1905461;28;8026;-70
2022/04/29 06:05:32;;;;;;;;;;;;;;;;;;1905171;28;7096;-68
2022/04/29 06:06:29;;;;;;;;;;;;;;;;;;1905427;28;8071;-67
2022/04/29 06:07:27;;;;;;;;;;;;;;;;;;1904496;28;7100;-70
2022/04/29 06:08:25;;;;;;;;;;;;;;;;;;1905885;28;7010;-68
2022/04/29 06:09:22;;;;;;;;;;;;;;;;;;1905257;28;7096;-69
2022/04/29 06:10:20;;;;;;;;;;;;;;;;;;1905043;28;7336;-70
2022/04/29 06:11:17;;;;;;;;;;;;;;;;;;1905509;28;7863;-70
2022/04/29 06:12:15;;;;;;;;;;;;;;;;;;1904009;28;7038;-70
2022/04/29 06:13:13;;;;;;;;;;;;;;;;;;1897071;28;7031;-67
2022/04/29 06:14:10;;;;;;;;;;;;;;;;;;1897142;28;7005;-71
2022/04/29 06:15:13;;;;;;;;;;;;;;;;;;1903400;28;7010;-67
2022/04/29 06:16:11;;;;;;;;;;;;;;;;;;1903590;28;7113;-69
2022/04/29 06:17:08;;;;;;;;;;;;;;;;;;1904933;28;7006;-67
2022/04/29 06:18:06;;;;;;;;;;;;;;;;;;1904800;28;7040;-69
2022/04/29 06:19:03;;;;;;;;;;;;;;;;;;1905631;28;7006;-69
2022/04/29 06:20:01;;;;;;;;;;;;;;;;;;1904213;28;7208;-68
2022/04/29 06:20:58;;;;;;;;;;;;;;;;;;1905189;28;7001;-70
2022/04/29 06:21:56;;;;;;;;;;;;;;;;;;1905786;28;8032;-67
2022/04/29 06:22:53;;;;;;;;;;;;;;;;;;1905707;28;7038;-71
2022/04/29 06:23:51;;;;;;;;;;;;;;;;;;1905795;28;7042;-70
2022/04/29 06:24:50;;;;;;;;;;;;;;;;;;1904765;28;7001;-67
2022/04/29 06:26:05;;;;;;;;;;;;;;;;;;1905001;28;7113;-69
2022/04/29 06:27:02;;;;;;;;;;;;;;;;;;1898982;28;7140;-67
2022/04/29 06:28:00;;;;;;;;;;;;;;;;;;1905545;28;7316;-66
2022/04/29 06:28:57;;;;;;;;;;;;;;;;;;1905248;28;7113;-69
2022/04/29 06:29:55;;;;;;;;;;;;;;;;;;1905508;28;8049;-69
2022/04/29 06:30:53;;;;;;;;;;;;;;;;;;1905463;28;7005;-68
2022/04/29 06:31:50;;;;;;;;;;;;;;;;;;1905358;28;8111;-68
2022/04/29 06:32:52;;;;;;;;;;;;;;;;;;1905484;28;7192;-67
2022/04/29 06:33:49;;;;;;;;;;;;;;;;;;1905370;28;7006;-68
2022/04/29 06:34:48;;;;;;;;;;;;;;;;;;1905352;28;7032;-68
2022/04/29 06:35:47;;;;;;;;;;;;;;;;;;1905600;28;7110;-69
2022/04/29 06:36:45;;;;;;;;;;;;;;;;;;1905486;28;7325;-66
2022/04/29 06:37:42;;;;;;;;;;;;;;;;;;1905559;28;7002;-70
2022/04/29 06:38:40;;;;;;;;;;;;;;;;;;1905907;28;7305;-68
2022/04/29 06:39:38;;;;;;;;;;;;;;;;;;1905183;28;7108;-71
2022/04/29 06:40:35;;;;;;;;;;;;;;;;;;1905172;28;7063;-69
2022/04/29 06:41:34;;;;;;;;;;;;;;;;;;1905179;28;7014;-70
2022/04/29 06:42:42;;;;;;;;;;;;;;;;;;1904930;28;7093;-69
2022/04/29 06:43:39;;;;;;;;;;;;;;;;;;1904993;28;7129;-69
2022/04/29 06:44:37;;;;;;;;;;;;;;;;;;1905267;28;8071;-71
2022/04/29 06:45:34;;;;;;;;;;;;;;;;;;1905099;28;7038;-70
2022/04/29 06:46:32;;;;;;;;;;;;;;;;;;1905636;28;7384;-68
2022/04/29 06:47:29;;;;;;;;;;;;;;;;;;1905155;28;7092;-70
2022/04/29 06:48:27;;;;;;;;;;;;;;;;;;1905041;28;7002;-69
2022/04/29 06:49:24;;;;;;;;;;;;;;;;;;1905049;28;7002;-68
2022/04/29 06:50:22;;;;;;;;;;;;;;;;;;1905318;28;7005;-70
2022/04/29 06:51:19;;;;;;;;;;;;;;;;;;1905007;28;7105;-67